sensor_id;sensor_type;location;lat;lon;timestamp;pressure;altitude;pressure_sealevel;temperature;humidity
19811;BME280;10065;49.632;8.346;2024-01-07T00:11:27;100187.44;;;7.61;78.30
19811;BME280;10065;49.632;8.346;2024-01-07T05:09:50;100343.03;;;7.42;77.24
19811;BME280;10065;49.632;8.346;2024-01-07T08:03:08;100527.44;;;7.13;73.09
19811;BME280;10065;49.632;8.346;2024-01-07T08:05:36;100521.09;;;7.15;72.73
19811;BME280;10065;49.632;8.346;2024-01-07T08:08:06;100527.91;;;7.18;72.51
19811;BME280;10065;49.632;8.346;2024-01-07T08:10:34;100531.84;;;7.24;72.26
19811;BME280;10065;49.632;8.346;2024-01-07T08:13:03;100535.19;;;7.26;71.34
19811;BME280;10065;49.632;8.346;2024-01-07T08:15:33;100540.72;;;7.23;71.51
19811;BME280;10065;49.632;8.346;2024-01-07T08:18:02;100543.13;;;7.26;71.58
19811;BME280;10065;49.632;8.346;2024-01-07T08:20:32;100548.41;;;7.26;71.39
19811;BME280;10065;49.632;8.346;2024-01-07T08:23:00;100544.31;;;7.22;71.03
19811;BME280;10065;49.632;8.346;2024-01-07T08:25:29;100554.63;;;7.25;71.30
19811;BME280;10065;49.632;8.346;2024-01-07T08:27:57;100556.53;;;7.23;71.13
19811;BME280;10065;49.632;8.346;2024-01-07T08:30:26;100562.53;;;7.25;71.10
19811;BME280;10065;49.632;8.346;2024-01-07T08:32:55;100562.03;;;7.31;71.09
19811;BME280;10065;49.632;8.346;2024-01-07T08:35:24;100557.03;;;7.28;70.70
19811;BME280;10065;49.632;8.346;2024-01-07T08:37:55;100568.44;;;7.17;70.45
19811;BME280;10065;49.632;8.346;2024-01-07T08:40:24;100570.75;;;7.10;71.21
19811;BME280;10065;49.632;8.346;2024-01-07T08:42:53;100573.16;;;7.02;70.98
19811;BME280;10065;49.632;8.346;2024-01-07T08:45:21;100574.22;;;7.00;71.05
19811;BME280;10065;49.632;8.346;2024-01-07T08:47:50;100581.06;;;7.02;70.99
19811;BME280;10065;49.632;8.346;2024-01-07T08:50:19;100583.94;;;7.10;70.89
19811;BME280;10065;49.632;8.346;2024-01-07T08:52:52;100592.69;;;7.11;70.58
19811;BME280;10065;49.632;8.346;2024-01-07T08:55:21;100595.53;;;7.08;69.92
19811;BME280;10065;49.632;8.346;2024-01-07T08:57:50;100594.09;;;7.04;68.99
19811;BME280;10065;49.632;8.346;2024-01-07T09:00:19;100598.81;;;7.00;68.49
19811;BME280;10065;49.632;8.346;2024-01-07T09:02:52;100600.94;;;6.95;67.99
19811;BME280;10065;49.632;8.346;2024-01-07T09:05:21;100601.94;;;6.83;67.67
19811;BME280;10065;49.632;8.346;2024-01-07T09:07:51;100602.88;;;6.82;67.41
19811;BME280;10065;49.632;8.346;2024-01-07T09:10:21;100602.16;;;6.80;67.09
19811;BME280;10065;49.632;8.346;2024-01-07T09:12:52;100616.56;;;6.76;66.61
19811;BME280;10065;49.632;8.346;2024-01-07T09:15:21;100617.84;;;6.70;66.73
19811;BME280;10065;49.632;8.346;2024-01-07T09:17:50;100622.78;;;6.64;66.86
19811;BME280;10065;49.632;8.346;2024-01-07T09:20:18;100627.22;;;6.63;66.84
19811;BME280;10065;49.632;8.346;2024-01-07T09:22:47;100631.88;;;6.60;66.91
19811;BME280;10065;49.632;8.346;2024-01-07T09:25:15;100631.63;;;6.63;66.95
19811;BME280;10065;49.632;8.346;2024-01-07T09:27:45;100638.34;;;6.67;66.34
19811;BME280;10065;49.632;8.346;2024-01-07T09:30:14;100642.41;;;6.60;66.39
19811;BME280;10065;49.632;8.346;2024-01-07T09:32:42;100644.91;;;6.61;65.62
19811;BME280;10065;49.632;8.346;2024-01-07T09:35:10;100646.25;;;6.56;65.50
19811;BME280;10065;49.632;8.346;2024-01-07T09:37:39;100658.44;;;6.46;65.95
19811;BME280;10065;49.632;8.346;2024-01-07T09:40:09;100649.47;;;6.48;65.89
19811;BME280;10065;49.632;8.346;2024-01-07T09:42:37;100651.03;;;6.51;65.04
19811;BME280;10065;49.632;8.346;2024-01-07T09:45:08;100657.00;;;6.53;65.00
19811;BME280;10065;49.632;8.346;2024-01-07T09:47:40;100654.97;;;6.45;63.96
19811;BME280;10065;49.632;8.346;2024-01-07T09:50:11;100663.22;;;6.40;63.94
19811;BME280;10065;49.632;8.346;2024-01-07T09:52:46;100665.97;;;6.39;64.17
19811;BME280;10065;49.632;8.346;2024-01-07T09:55:26;100666.31;;;6.34;63.78
19811;BME280;10065;49.632;8.346;2024-01-07T09:57:56;100670.47;;;6.26;63.63
19811;BME280;10065;49.632;8.346;2024-01-07T10:00:29;100665.56;;;6.21;63.94
19811;BME280;10065;49.632;8.346;2024-01-07T10:02:57;100668.69;;;6.26;64.26
19811;BME280;10065;49.632;8.346;2024-01-07T10:05:26;100679.72;;;6.31;64.05
19811;BME280;10065;49.632;8.346;2024-01-07T10:07:54;100683.78;;;6.35;63.98
19811;BME280;10065;49.632;8.346;2024-01-07T10:10:24;100682.69;;;6.27;63.76
19811;BME280;10065;49.632;8.346;2024-01-07T10:12:52;100682.09;;;6.23;63.75
19811;BME280;10065;49.632;8.346;2024-01-07T10:15:24;100679.34;;;6.25;63.69
19811;BME280;10065;49.632;8.346;2024-01-07T10:18:03;100679.47;;;6.34;63.75
19811;BME280;10065;49.632;8.346;2024-01-07T10:20:33;100680.09;;;6.38;63.49
19811;BME280;10065;49.632;8.346;2024-01-07T10:23:02;100681.41;;;6.32;63.12
19811;BME280;10065;49.632;8.346;2024-01-07T10:25:31;100684.78;;;6.46;63.03
19811;BME280;10065;49.632;8.346;2024-01-07T10:28:03;100689.56;;;6.40;62.69
19811;BME280;10065;49.632;8.346;2024-01-07T10:30:32;100691.47;;;6.38;61.74
19811;BME280;10065;49.632;8.346;2024-01-07T10:33:02;100684.75;;;6.34;62.10
19811;BME280;10065;49.632;8.346;2024-01-07T10:35:34;100689.88;;;6.25;62.19
19811;BME280;10065;49.632;8.346;2024-01-07T10:38:03;100685.00;;;6.31;62.47
19811;BME280;10065;49.632;8.346;2024-01-07T10:40:31;100680.09;;;6.38;62.30
19811;BME280;10065;49.632;8.346;2024-01-07T10:43:02;100693.16;;;6.39;62.22
19811;BME280;10065;49.632;8.346;2024-01-07T10:45:31;100692.69;;;6.46;62.35
19811;BME280;10065;49.632;8.346;2024-01-07T10:48:06;100695.09;;;6.49;61.91
19811;BME280;10065;49.632;8.346;2024-01-07T10:50:37;100696.97;;;6.35;61.78
19811;BME280;10065;49.632;8.346;2024-01-07T10:53:08;100693.28;;;6.38;62.21
19811;BME280;10065;49.632;8.346;2024-01-07T10:55:40;100695.44;;;6.44;62.29
19811;BME280;10065;49.632;8.346;2024-01-07T10:58:12;100699.41;;;6.50;62.47
19811;BME280;10065;49.632;8.346;2024-01-07T11:00:41;100697.25;;;6.55;62.31
19811;BME280;10065;49.632;8.346;2024-01-07T11:03:14;100702.31;;;6.58;61.84
19811;BME280;10065;49.632;8.346;2024-01-07T11:05:50;100698.47;;;6.62;61.74
19811;BME280;10065;49.632;8.346;2024-01-07T11:08:25;100711.38;;;6.54;61.10
19811;BME280;10065;49.632;8.346;2024-01-07T11:10:59;100702.16;;;6.48;61.26
19811;BME280;10065;49.632;8.346;2024-01-07T11:13:32;100707.19;;;6.51;61.27
19811;BME280;10065;49.632;8.346;2024-01-07T11:16:02;100705.53;;;6.50;61.37
19811;BME280;10065;49.632;8.346;2024-01-07T11:18:32;100697.25;;;6.55;61.13
19811;BME280;10065;49.632;8.346;2024-01-07T11:21:02;100708.50;;;6.46;60.75
19811;BME280;10065;49.632;8.346;2024-01-07T11:23:33;100712.06;;;6.45;61.08
19811;BME280;10065;49.632;8.346;2024-01-07T11:26:03;100708.13;;;6.39;60.96
19811;BME280;10065;49.632;8.346;2024-01-07T11:28:46;100711.09;;;6.34;61.02
19811;BME280;10065;49.632;8.346;2024-01-07T11:31:16;100717.19;;;6.35;60.96
19811;BME280;10065;49.632;8.346;2024-01-07T11:33:46;100718.03;;;6.24;60.14
19811;BME280;10065;49.632;8.346;2024-01-07T11:36:16;100721.78;;;6.09;60.16
19811;BME280;10065;49.632;8.346;2024-01-07T11:38:45;100725.81;;;6.02;60.41
19811;BME280;10065;49.632;8.346;2024-01-07T11:41:20;100722.03;;;6.06;60.40
19811;BME280;10065;49.632;8.346;2024-01-07T11:43:54;100716.78;;;6.17;60.55
19811;BME280;10065;49.632;8.346;2024-01-07T11:46:23;100720.03;;;6.21;60.47
19811;BME280;10065;49.632;8.346;2024-01-07T11:48:55;100712.25;;;6.19;60.70
19811;BME280;10065;49.632;8.346;2024-01-07T11:51:26;100714.41;;;6.25;61.28
19811;BME280;10065;49.632;8.346;2024-01-07T11:53:55;100718.03;;;6.24;61.18
19811;BME280;10065;49.632;8.346;2024-01-07T11:56:24;100719.94;;;6.22;60.32
19811;BME280;10065;49.632;8.346;2024-01-07T11:58:53;100718.03;;;6.24;60.06
19811;BME280;10065;49.632;8.346;2024-01-07T12:01:23;100712.78;;;6.35;60.39
19811;BME280;10065;49.632;8.346;2024-01-07T12:03:55;100715.22;;;6.50;60.36
19811;BME280;10065;49.632;8.346;2024-01-07T12:06:24;100712.47;;;6.62;60.21
19811;BME280;10065;49.632;8.346;2024-01-07T12:08:52;100710.69;;;6.63;59.78
19811;BME280;10065;49.632;8.346;2024-01-07T12:11:21;100711.66;;;6.73;59.56
19811;BME280;10065;49.632;8.346;2024-01-07T12:13:51;100709.06;;;6.84;59.20
19811;BME280;10065;49.632;8.346;2024-01-07T12:16:20;100715.50;;;6.80;59.14
19811;BME280;10065;49.632;8.346;2024-01-07T12:18:48;100711.88;;;6.70;59.74
19811;BME280;10065;49.632;8.346;2024-01-07T12:21:20;100717.84;;;6.61;59.81
19811;BME280;10065;49.632;8.346;2024-01-07T12:23:49;100719.81;;;6.59;60.08
19811;BME280;10065;49.632;8.346;2024-01-07T12:26:19;100717.28;;;6.57;60.18
19811;BME280;10065;49.632;8.346;2024-01-07T12:28:52;100728.75;;;6.56;59.99
19811;BME280;10065;49.632;8.346;2024-01-07T12:31:22;100723.25;;;6.48;59.85
19811;BME280;10065;49.632;8.346;2024-01-07T12:33:51;100726.19;;;6.43;60.32
19811;BME280;10065;49.632;8.346;2024-01-07T12:36:22;100727.28;;;6.41;60.17
19811;BME280;10065;49.632;8.346;2024-01-07T12:38:52;100740.56;;;6.39;60.30
19811;BME280;10065;49.632;8.346;2024-01-07T12:41:21;100721.72;;;6.22;59.78
19811;BME280;10065;49.632;8.346;2024-01-07T12:43:50;100738.56;;;6.19;60.17
19811;BME280;10065;49.632;8.346;2024-01-07T12:46:18;100734.31;;;6.29;59.91
19811;BME280;10065;49.632;8.346;2024-01-07T12:48:47;100730.84;;;6.29;58.49
19811;BME280;10065;49.632;8.346;2024-01-07T12:51:16;100736.00;;;6.30;58.06
19811;BME280;10065;49.632;8.346;2024-01-07T12:53:50;100736.94;;;6.29;57.09
19811;BME280;10065;49.632;8.346;2024-01-07T12:56:18;100738.25;;;6.24;57.12
19811;BME280;10065;49.632;8.346;2024-01-07T12:58:46;100738.72;;;6.29;59.40
19811;BME280;10065;49.632;8.346;2024-01-07T13:01:14;100745.13;;;6.37;59.27
19811;BME280;10065;49.632;8.346;2024-01-07T13:03:42;100752.78;;;6.40;57.43
19811;BME280;10065;49.632;8.346;2024-01-07T13:06:11;100756.28;;;6.41;56.84
19811;BME280;10065;49.632;8.346;2024-01-07T13:08:39;100754.69;;;6.38;56.30
19811;BME280;10065;49.632;8.346;2024-01-07T13:11:08;100761.66;;;6.39;56.15
19811;BME280;10065;49.632;8.346;2024-01-07T13:13:41;100757.06;;;6.30;56.33
19811;BME280;10065;49.632;8.346;2024-01-07T13:16:09;100762.34;;;6.30;56.04
19811;BME280;10065;49.632;8.346;2024-01-07T13:18:38;100770.81;;;6.23;56.13
19811;BME280;10065;49.632;8.346;2024-01-07T13:21:06;100772.06;;;6.17;56.46
19811;BME280;10065;49.632;8.346;2024-01-07T13:23:34;100772.44;;;6.13;56.75
19811;BME280;10065;49.632;8.346;2024-01-07T13:26:02;100779.81;;;6.08;56.65
19811;BME280;10065;49.632;8.346;2024-01-07T13:28:34;100776.31;;;6.07;56.66
19811;BME280;10065;49.632;8.346;2024-01-07T13:31:03;100777.13;;;5.96;56.50
19811;BME280;10065;49.632;8.346;2024-01-07T13:33:31;100774.81;;;5.92;56.73
19811;BME280;10065;49.632;8.346;2024-01-07T13:35:59;100773.56;;;5.97;56.99
19811;BME280;10065;49.632;8.346;2024-01-07T13:38:29;100788.06;;;6.03;56.97
19811;BME280;10065;49.632;8.346;2024-01-07T13:40:58;100789.72;;;6.04;57.00
19811;BME280;10065;49.632;8.346;2024-01-07T13:43:26;100796.81;;;5.91;55.51
19811;BME280;10065;49.632;8.346;2024-01-07T13:45:57;100794.53;;;5.74;55.56
19811;BME280;10065;49.632;8.346;2024-01-07T13:48:25;100791.19;;;5.72;55.69
19811;BME280;10065;49.632;8.346;2024-01-07T13:50:54;100792.44;;;5.66;55.90
19811;BME280;10065;49.632;8.346;2024-01-07T13:53:24;100794.97;;;5.67;55.99
19811;BME280;10065;49.632;8.346;2024-01-07T13:55:53;100800.63;;;5.74;56.18
19811;BME280;10065;49.632;8.346;2024-01-07T13:58:22;100806.28;;;5.81;56.52
19811;BME280;10065;49.632;8.346;2024-01-07T14:00:50;100813.88;;;5.85;56.42
19811;BME280;10065;49.632;8.346;2024-01-07T14:03:20;100812.53;;;5.80;56.36
19811;BME280;10065;49.632;8.346;2024-01-07T14:05:48;100822.22;;;5.79;56.37
19811;BME280;10065;49.632;8.346;2024-01-07T14:08:17;100819.34;;;5.82;56.47
19811;BME280;10065;49.632;8.346;2024-01-07T14:10:45;100818.63;;;5.80;56.20
19811;BME280;10065;49.632;8.346;2024-01-07T14:13:15;100825.44;;;5.83;56.46
19811;BME280;10065;49.632;8.346;2024-01-07T14:15:42;100822.50;;;5.87;56.40
19811;BME280;10065;49.632;8.346;2024-01-07T14:18:10;100831.97;;;5.90;56.63
19811;BME280;10065;49.632;8.346;2024-01-07T14:20:44;100836.09;;;5.81;55.80
19811;BME280;10065;49.632;8.346;2024-01-07T14:23:12;100841.88;;;5.86;56.00
19811;BME280;10065;49.632;8.346;2024-01-07T14:25:39;100841.25;;;5.83;55.93
19811;BME280;10065;49.632;8.346;2024-01-07T14:28:08;100841.88;;;5.86;56.11
19811;BME280;10065;49.632;8.346;2024-01-07T14:30:36;100845.91;;;5.79;56.00
19811;BME280;10065;49.632;8.346;2024-01-07T14:33:04;100847.91;;;5.63;54.79
19811;BME280;10065;49.632;8.346;2024-01-07T14:35:34;100845.31;;;5.50;54.98
19811;BME280;10065;49.632;8.346;2024-01-07T14:38:03;100846.78;;;5.29;55.00
19811;BME280;10065;49.632;8.346;2024-01-07T14:40:34;100850.78;;;5.22;55.06
19811;BME280;10065;49.632;8.346;2024-01-07T14:43:02;100859.22;;;5.27;55.04
19811;BME280;10065;49.632;8.346;2024-01-07T14:45:30;100859.22;;;5.27;55.12
19811;BME280;10065;49.632;8.346;2024-01-07T14:47:58;100860.34;;;5.23;54.97
19811;BME280;10065;49.632;8.346;2024-01-07T14:50:26;100864.63;;;5.11;54.49
19811;BME280;10065;49.632;8.346;2024-01-07T14:53:06;100874.00;;;5.15;55.19
19811;BME280;10065;49.632;8.346;2024-01-07T14:55:34;100879.69;;;5.22;54.98
19811;BME280;10065;49.632;8.346;2024-01-07T14:58:02;100888.13;;;5.27;54.09
19811;BME280;10065;49.632;8.346;2024-01-07T15:00:30;100889.13;;;5.12;53.67
19811;BME280;10065;49.632;8.346;2024-01-07T15:02:58;100898.47;;;5.03;53.67
19811;BME280;10065;49.632;8.346;2024-01-07T15:05:26;100895.00;;;5.03;54.26
19811;BME280;10065;49.632;8.346;2024-01-07T15:07:54;100899.97;;;5.07;54.60
19811;BME280;10065;49.632;8.346;2024-01-07T15:10:24;100901.75;;;5.07;54.32
19811;BME280;10065;49.632;8.346;2024-01-07T15:12:52;100903.97;;;5.13;54.48
19811;BME280;10065;49.632;8.346;2024-01-07T15:15:32;100911.56;;;5.17;54.59
19811;BME280;10065;49.632;8.346;2024-01-07T15:18:00;100915.13;;;5.16;54.85
19811;BME280;10065;49.632;8.346;2024-01-07T15:20:30;100910.91;;;5.14;55.14
19811;BME280;10065;49.632;8.346;2024-01-07T15:22:58;100919.75;;;5.13;55.25
19811;BME280;10065;49.632;8.346;2024-01-07T15:25:28;100922.47;;;5.11;55.31
19811;BME280;10065;49.632;8.346;2024-01-07T15:27:56;100924.38;;;5.09;55.44
19811;BME280;10065;49.632;8.346;2024-01-07T15:30:25;100936.56;;;5.10;55.63
19811;BME280;10065;49.632;8.346;2024-01-07T15:32:54;100933.22;;;5.08;55.25
19811;BME280;10065;49.632;8.346;2024-01-07T15:35:22;100935.84;;;5.08;55.85
19811;BME280;10065;49.632;8.346;2024-01-07T15:37:50;100944.00;;;5.04;55.75
19811;BME280;10065;49.632;8.346;2024-01-07T15:40:18;100947.81;;;5.00;56.04
19811;BME280;10065;49.632;8.346;2024-01-07T15:42:48;100950.09;;;4.91;55.81
19811;BME280;10065;49.632;8.346;2024-01-07T15:45:17;100967.94;;;4.86;55.99
19811;BME280;10065;49.632;8.346;2024-01-07T15:47:46;100973.28;;;4.85;56.23
19811;BME280;10065;49.632;8.346;2024-01-07T15:50:15;100979.38;;;4.85;56.41
19811;BME280;10065;49.632;8.346;2024-01-07T15:52:44;100978.28;;;4.75;56.25
19811;BME280;10065;49.632;8.346;2024-01-07T15:55:13;100977.66;;;4.72;56.05
19811;BME280;10065;49.632;8.346;2024-01-07T15:57:42;100977.00;;;4.68;55.16
19811;BME280;10065;49.632;8.346;2024-01-07T16:00:13;100986.53;;;4.57;54.76
19811;BME280;10065;49.632;8.346;2024-01-07T16:02:42;100988.66;;;4.50;55.09
19811;BME280;10065;49.632;8.346;2024-01-07T16:05:12;100990.34;;;4.51;55.50
19811;BME280;10065;49.632;8.346;2024-01-07T16:07:41;100996.91;;;4.58;55.85
19811;BME280;10065;49.632;8.346;2024-01-07T16:10:09;100994.94;;;4.62;55.69
19811;BME280;10065;49.632;8.346;2024-01-07T16:12:38;101003.47;;;4.65;55.18
19811;BME280;10065;49.632;8.346;2024-01-07T16:15:07;101001.03;;;4.62;54.64
19811;BME280;10065;49.632;8.346;2024-01-07T16:17:37;101004.09;;;4.69;54.91
19811;BME280;10065;49.632;8.346;2024-01-07T16:20:07;101007.41;;;4.72;54.41
19811;BME280;10065;49.632;8.346;2024-01-07T16:22:38;101020.81;;;4.68;54.41
19811;BME280;10065;49.632;8.346;2024-01-07T16:25:07;101014.56;;;4.56;54.38
19811;BME280;10065;49.632;8.346;2024-01-07T16:27:35;101019.16;;;4.52;54.55
19811;BME280;10065;49.632;8.346;2024-01-07T16:30:04;101016.63;;;4.51;54.51
19811;BME280;10065;49.632;8.346;2024-01-07T16:32:33;101028.63;;;4.55;54.96
19811;BME280;10065;49.632;8.346;2024-01-07T16:35:03;101034.06;;;4.52;55.09
19811;BME280;10065;49.632;8.346;2024-01-07T16:37:31;101037.72;;;4.49;55.16
19811;BME280;10065;49.632;8.346;2024-01-07T16:40:00;101045.16;;;4.43;55.17
19811;BME280;10065;49.632;8.346;2024-01-07T16:42:28;101050.03;;;4.35;54.78
19811;BME280;10065;49.632;8.346;2024-01-07T16:44:58;101055.09;;;4.24;54.78
19811;BME280;10065;49.632;8.346;2024-01-07T16:47:27;101055.56;;;4.16;54.38
19811;BME280;10065;49.632;8.346;2024-01-07T16:49:55;101056.13;;;4.21;54.55
19811;BME280;10065;49.632;8.346;2024-01-07T16:52:28;101062.97;;;4.24;54.11
19811;BME280;10065;49.632;8.346;2024-01-07T16:54:56;101057.25;;;4.17;53.04
19811;BME280;10065;49.632;8.346;2024-01-07T16:57:24;101065.28;;;4.14;53.26
19811;BME280;10065;49.632;8.346;2024-01-07T16:59:52;101061.28;;;4.08;52.74
19811;BME280;10065;49.632;8.346;2024-01-07T17:02:20;101067.47;;;4.07;53.14
19811;BME280;10065;49.632;8.346;2024-01-07T17:04:49;101087.69;;;4.05;52.67
19811;BME280;10065;49.632;8.346;2024-01-07T17:07:18;101088.25;;;3.96;52.24
19811;BME280;10065;49.632;8.346;2024-01-07T17:09:48;101084.34;;;3.73;52.05
19811;BME280;10065;49.632;8.346;2024-01-07T17:12:17;101088.34;;;3.65;51.91
19811;BME280;10065;49.632;8.346;2024-01-07T17:14:45;101086.75;;;3.62;52.42
19811;BME280;10065;49.632;8.346;2024-01-07T17:17:15;101094.53;;;3.64;51.91
19811;BME280;10065;49.632;8.346;2024-01-07T17:19:43;101099.22;;;3.59;51.94
19811;BME280;10065;49.632;8.346;2024-01-07T17:22:12;101113.06;;;3.61;52.13
19811;BME280;10065;49.632;8.346;2024-01-07T17:24:41;101111.47;;;3.58;51.72
19811;BME280;10065;49.632;8.346;2024-01-07T17:27:11;101117.50;;;3.60;52.00
19811;BME280;10065;49.632;8.346;2024-01-07T17:29:39;101116.66;;;3.60;51.45
19811;BME280;10065;49.632;8.346;2024-01-07T17:32:08;101128.63;;;3.64;51.76
19811;BME280;10065;49.632;8.346;2024-01-07T17:34:39;101125.94;;;3.65;51.49
19811;BME280;10065;49.632;8.346;2024-01-07T17:37:07;101133.22;;;3.60;51.24
19811;BME280;10065;49.632;8.346;2024-01-07T17:39:35;101130.16;;;3.52;51.30
19811;BME280;10065;49.632;8.346;2024-01-07T17:42:04;101121.72;;;3.47;51.58
19811;BME280;10065;49.632;8.346;2024-01-07T17:44:37;101136.03;;;3.42;51.40
19811;BME280;10065;49.632;8.346;2024-01-07T17:47:09;101138.66;;;3.42;51.44
19811;BME280;10065;49.632;8.346;2024-01-07T17:49:37;101136.38;;;3.35;51.10
19811;BME280;10065;49.632;8.346;2024-01-07T17:52:06;101135.44;;;3.36;51.56
19811;BME280;10065;49.632;8.346;2024-01-07T17:54:34;101144.16;;;3.37;51.13
19811;BME280;10065;49.632;8.346;2024-01-07T17:57:04;101144.22;;;3.35;50.58
19811;BME280;10065;49.632;8.346;2024-01-07T17:59:33;101149.47;;;3.35;50.71
19811;BME280;10065;49.632;8.346;2024-01-07T18:02:03;101156.75;;;3.30;50.71
19811;BME280;10065;49.632;8.346;2024-01-07T18:04:34;101152.03;;;3.21;50.56
19811;BME280;10065;49.632;8.346;2024-01-07T18:07:02;101153.72;;;3.22;50.96
19811;BME280;10065;49.632;8.346;2024-01-07T18:09:30;101163.00;;;3.12;50.71
19811;BME280;10065;49.632;8.346;2024-01-07T18:11:59;101172.81;;;3.09;50.27
19811;BME280;10065;49.632;8.346;2024-01-07T18:14:27;101160.13;;;3.01;50.86
19811;BME280;10065;49.632;8.346;2024-01-07T18:16:55;101163.00;;;2.96;51.25
19811;BME280;10065;49.632;8.346;2024-01-07T18:19:25;101169.41;;;2.91;50.65
19811;BME280;10065;49.632;8.346;2024-01-07T18:21:53;101173.97;;;2.87;50.84
19811;BME280;10065;49.632;8.346;2024-01-07T18:24:23;101173.97;;;2.87;51.01
19811;BME280;10065;49.632;8.346;2024-01-07T18:26:51;101175.91;;;2.84;50.62
19811;BME280;10065;49.632;8.346;2024-01-07T18:29:23;101184.94;;;2.78;50.54
19811;BME280;10065;49.632;8.346;2024-01-07T18:31:54;101178.84;;;2.78;50.31
19811;BME280;10065;49.632;8.346;2024-01-07T18:34:22;101190.19;;;2.78;50.32
19811;BME280;10065;49.632;8.346;2024-01-07T18:36:52;101185.47;;;2.85;49.92
19811;BME280;10065;49.632;8.346;2024-01-07T18:39:21;101203.34;;;2.77;49.75
19811;BME280;10065;49.632;8.346;2024-01-07T18:41:50;101200.72;;;2.77;49.47
19811;BME280;10065;49.632;8.346;2024-01-07T18:44:19;101192.53;;;2.83;49.99
19811;BME280;10065;49.632;8.346;2024-01-07T18:46:47;101208.88;;;2.88;49.32
19811;BME280;10065;49.632;8.346;2024-01-07T18:49:15;101200.31;;;2.84;49.47
19811;BME280;10065;49.632;8.346;2024-01-07T18:51:44;101206.06;;;2.91;49.93
19811;BME280;10065;49.632;8.346;2024-01-07T18:54:14;101206.06;;;2.91;49.57
19811;BME280;10065;49.632;8.346;2024-01-07T18:56:43;101218.09;;;2.95;49.73
19811;BME280;10065;49.632;8.346;2024-01-07T18:59:11;101214.56;;;2.96;49.03
19811;BME280;10065;49.632;8.346;2024-01-07T19:01:41;101216.25;;;2.97;49.19
19811;BME280;10065;49.632;8.346;2024-01-07T19:04:09;101205.78;;;2.97;49.19
19811;BME280;10065;49.632;8.346;2024-01-07T19:06:37;101208.47;;;2.95;49.01
19811;BME280;10065;49.632;8.346;2024-01-07T19:09:10;101220.28;;;2.87;49.40
19811;BME280;10065;49.632;8.346;2024-01-07T19:11:41;101218.16;;;2.78;49.27
19811;BME280;10065;49.632;8.346;2024-01-07T19:14:10;101219.75;;;2.80;49.49
19811;BME280;10065;49.632;8.346;2024-01-07T19:16:39;101223.47;;;2.76;49.45
19811;BME280;10065;49.632;8.346;2024-01-07T19:19:08;101238.00;;;2.82;49.77
19811;BME280;10065;49.632;8.346;2024-01-07T19:21:38;101236.66;;;2.90;49.62
19811;BME280;10065;49.632;8.346;2024-01-07T19:24:08;101241.09;;;2.90;49.32
19811;BME280;10065;49.632;8.346;2024-01-07T19:26:36;101236.34;;;2.81;48.88
19811;BME280;10065;49.632;8.346;2024-01-07T19:29:10;101240.94;;;2.76;49.25
19811;BME280;10065;49.632;8.346;2024-01-07T19:31:38;101240.16;;;2.74;49.54
19811;BME280;10065;49.632;8.346;2024-01-07T19:34:07;101235.97;;;2.71;49.26
19811;BME280;10065;49.632;8.346;2024-01-07T19:36:39;101247.44;;;2.69;49.47
19811;BME280;10065;49.632;8.346;2024-01-07T19:39:08;101238.66;;;2.70;49.76
19811;BME280;10065;49.632;8.346;2024-01-07T19:41:39;101242.78;;;2.74;49.53
19811;BME280;10065;49.632;8.346;2024-01-07T19:44:09;101245.34;;;2.75;49.57
19811;BME280;10065;49.632;8.346;2024-01-07T19:46:38;101243.75;;;2.73;49.10
19811;BME280;10065;49.632;8.346;2024-01-07T19:49:06;101244.50;;;2.75;49.60
19811;BME280;10065;49.632;8.346;2024-01-07T19:51:36;101245.41;;;2.74;49.16
19811;BME280;10065;49.632;8.346;2024-01-07T19:54:05;101252.53;;;2.72;49.19
19811;BME280;10065;49.632;8.346;2024-01-07T19:56:33;101265.38;;;2.76;49.11
19811;BME280;10065;49.632;8.346;2024-01-07T19:59:01;101259.81;;;2.82;48.78
19811;BME280;10065;49.632;8.346;2024-01-07T20:01:32;101257.59;;;2.75;48.82
19811;BME280;10065;49.632;8.346;2024-01-07T20:04:00;101256.44;;;2.80;49.36
19811;BME280;10065;49.632;8.346;2024-01-07T20:06:29;101255.19;;;2.87;48.97
19811;BME280;10065;49.632;8.346;2024-01-07T20:08:58;101260.19;;;2.75;48.90
19811;BME280;10065;49.632;8.346;2024-01-07T20:11:26;101260.38;;;2.72;48.87
19811;BME280;10065;49.632;8.346;2024-01-07T20:13:55;101254.13;;;2.74;49.00
19811;BME280;10065;49.632;8.346;2024-01-07T20:16:23;101258.13;;;2.81;48.80
19811;BME280;10065;49.632;8.346;2024-01-07T20:18:52;101264.38;;;2.79;48.63
19811;BME280;10065;49.632;8.346;2024-01-07T20:21:21;101264.19;;;2.82;48.90
19811;BME280;10065;49.632;8.346;2024-01-07T20:23:51;101264.03;;;2.85;49.05
19811;BME280;10065;49.632;8.346;2024-01-07T20:26:21;101257.47;;;2.93;49.00
19811;BME280;10065;49.632;8.346;2024-01-07T20:28:50;101265.13;;;2.98;49.27
19811;BME280;10065;49.632;8.346;2024-01-07T20:31:20;101262.63;;;2.95;48.24
19811;BME280;10065;49.632;8.346;2024-01-07T20:33:49;101259.91;;;2.81;48.65
19811;BME280;10065;49.632;8.346;2024-01-07T20:36:20;101271.13;;;2.83;48.81
19811;BME280;10065;49.632;8.346;2024-01-07T20:38:48;101267.84;;;2.79;48.85
19811;BME280;10065;49.632;8.346;2024-01-07T20:41:17;101270.28;;;2.82;49.04
19811;BME280;10065;49.632;8.346;2024-01-07T20:43:46;101268.91;;;2.75;48.59
19811;BME280;10065;49.632;8.346;2024-01-07T20:46:15;101273.63;;;2.69;49.01
19811;BME280;10065;49.632;8.346;2024-01-07T20:48:44;101282.25;;;2.71;49.19
19811;BME280;10065;49.632;8.346;2024-01-07T20:51:12;101279.91;;;2.82;49.22
19811;BME280;10065;49.632;8.346;2024-01-07T20:53:43;101274.84;;;2.79;48.67
19811;BME280;10065;49.632;8.346;2024-01-07T20:56:11;101277.78;;;2.73;48.82
19811;BME280;10065;49.632;8.346;2024-01-07T20:58:40;101268.06;;;2.75;48.86
19811;BME280;10065;49.632;8.346;2024-01-07T21:01:08;101285.41;;;2.77;48.92
19811;BME280;10065;49.632;8.346;2024-01-07T21:03:36;101281.59;;;2.83;49.08
19811;BME280;10065;49.632;8.346;2024-01-07T21:06:05;101282.63;;;2.80;49.29
19811;BME280;10065;49.632;8.346;2024-01-07T21:08:33;101286.69;;;2.86;49.26